sensor_id;sensor_type;location;lat;lon;timestamp;temperature;humidity
15103;DHT22;7652;53.584;9.998;2023-06-01T00:02:58;13.20;99.90
15103;DHT22;7652;53.584;9.998;2023-06-01T00:06:20;13.30;99.90
15103;DHT22;7652;53.584;9.998;2023-06-01T00:09:42;13.30;99.90
15103;DHT22;7652;53.584;9.998;2023-06-01T00:13:04;13.20;99.90
15103;DHT22;7652;53.584;9.998;2023-06-01T00:16:26;13.20;99.90
15103;DHT22;7652;53.584;9.998;2023-06-01T00:19:49;13.20;99.90
15103;DHT22;7652;53.584;9.998;2023-06-01T00:23:13;13.30;99.90
15103;DHT22;7652;53.584;9.998;2023-06-01T00:26:36;13.30;99.90
15103;DHT22;7652;53.584;9.998;2023-06-01T00:29:57;13.40;99.90
15103;DHT22;7652;53.584;9.998;2023-06-01T00:33:20;13.40;99.90
15103;DHT22;7652;53.584;9.998;2023-06-01T00:36:42;13.40;99.90
15103;DHT22;7652;53.584;9.998;2023-06-01T00:40:05;13.40;99.90
15103;DHT22;7652;53.584;9.998;2023-06-01T00:43:27;13.40;99.90
15103;DHT22;7652;53.584;9.998;2023-06-01T00:46:50;13.30;99.90
15103;DHT22;7652;53.584;9.998;2023-06-01T00:50:13;13.20;99.90
15103;DHT22;7652;53.584;9.998;2023-06-01T00:53:35;13.20;99.90
15103;DHT22;7652;53.584;9.998;2023-06-01T00:56:56;13.30;99.90
15103;DHT22;7652;53.584;9.998;2023-06-01T01:00:18;13.30;99.90
15103;DHT22;7652;53.584;9.998;2023-06-01T01:03:39;13.40;99.90
15103;DHT22;7652;53.584;9.998;2023-06-01T01:07:12;13.30;99.90
15103;DHT22;7652;53.584;9.998;2023-06-01T01:10:44;13.20;99.90
15103;DHT22;7652;53.584;9.998;2023-06-01T01:14:10;13.20;99.90
15103;DHT22;7652;53.584;9.998;2023-06-01T01:17:36;13.30;99.90
15103;DHT22;7652;53.584;9.998;2023-06-01T01:21:02;13.30;99.90
15103;DHT22;7652;53.584;9.998;2023-06-01T01:24:57;13.30;99.90
15103;DHT22;7652;53.584;9.998;2023-06-01T01:28:41;13.20;99.90
15103;DHT22;7652;53.584;9.998;2023-06-01T01:32:04;13.30;99.90
15103;DHT22;7652;53.584;9.998;2023-06-01T01:35:26;13.10;99.90
15103;DHT22;7652;53.584;9.998;2023-06-01T01:38:49;13.00;99.90
15103;DHT22;7652;53.584;9.998;2023-06-01T01:42:10;13.10;99.90
15103;DHT22;7652;53.584;9.998;2023-06-01T01:45:33;13.00;99.90
15103;DHT22;7652;53.584;9.998;2023-06-01T01:49:02;13.00;99.90
15103;DHT22;7652;53.584;9.998;2023-06-01T01:52:32;13.00;99.90
15103;DHT22;7652;53.584;9.998;2023-06-01T01:55:55;13.00;99.90
15103;DHT22;7652;53.584;9.998;2023-06-01T01:59:18;12.90;99.90
15103;DHT22;7652;53.584;9.998;2023-06-01T02:02:41;12.90;99.90
15103;DHT22;7652;53.584;9.998;2023-06-01T02:06:03;13.00;99.90
15103;DHT22;7652;53.584;9.998;2023-06-01T02:09:25;13.00;99.90
15103;DHT22;7652;53.584;9.998;2023-06-01T02:12:47;13.00;99.90
15103;DHT22;7652;53.584;9.998;2023-06-01T02:16:08;13.00;99.90
15103;DHT22;7652;53.584;9.998;2023-06-01T02:19:31;13.00;99.90
15103;DHT22;7652;53.584;9.998;2023-06-01T02:22:52;12.90;99.90
15103;DHT22;7652;53.584;9.998;2023-06-01T02:26:14;12.90;99.90
15103;DHT22;7652;53.584;9.998;2023-06-01T02:29:36;12.90;99.90
15103;DHT22;7652;53.584;9.998;2023-06-01T02:32:58;13.00;99.90
15103;DHT22;7652;53.584;9.998;2023-06-01T02:36:21;13.00;99.90
15103;DHT22;7652;53.584;9.998;2023-06-01T02:39:44;12.90;99.90
15103;DHT22;7652;53.584;9.998;2023-06-01T02:43:07;13.00;99.90
15103;DHT22;7652;53.584;9.998;2023-06-01T02:46:28;13.10;99.90
15103;DHT22;7652;53.584;9.998;2023-06-01T02:49:50;13.10;99.90
15103;DHT22;7652;53.584;9.998;2023-06-01T02:53:13;13.10;99.90
15103;DHT22;7652;53.584;9.998;2023-06-01T02:56:35;13.00;99.90
15103;DHT22;7652;53.584;9.998;2023-06-01T02:59:57;13.00;99.90
15103;DHT22;7652;53.584;9.998;2023-06-01T03:03:19;13.00;99.90
15103;DHT22;7652;53.584;9.998;2023-06-01T03:06:40;13.00;99.90
15103;DHT22;7652;53.584;9.998;2023-06-01T03:10:06;13.10;99.90
15103;DHT22;7652;53.584;9.998;2023-06-01T03:13:28;13.00;99.90
15103;DHT22;7652;53.584;9.998;2023-06-01T03:16:49;13.10;99.90
15103;DHT22;7652;53.584;9.998;2023-06-01T03:20:11;13.10;99.90
15103;DHT22;7652;53.584;9.998;2023-06-01T03:23:36;13.00;99.90
15103;DHT22;7652;53.584;9.998;2023-06-01T03:26:59;13.10;99.90
15103;DHT22;7652;53.584;9.998;2023-06-01T03:30:21;13.10;99.90
15103;DHT22;7652;53.584;9.998;2023-06-01T03:33:43;13.10;99.90
15103;DHT22;7652;53.584;9.998;2023-06-01T03:37:05;13.10;99.90
15103;DHT22;7652;53.584;9.998;2023-06-01T03:40:28;13.10;99.90
15103;DHT22;7652;53.584;9.998;2023-06-01T03:43:51;13.10;99.90
15103;DHT22;7652;53.584;9.998;2023-06-01T03:47:12;13.10;99.90
15103;DHT22;7652;53.584;9.998;2023-06-01T03:50:34;13.10;99.90
15103;DHT22;7652;53.584;9.998;2023-06-01T03:53:55;13.00;99.90
15103;DHT22;7652;53.584;9.998;2023-06-01T03:57:19;12.90;99.90
15103;DHT22;7652;53.584;9.998;2023-06-01T04:00:42;12.90;99.90
15103;DHT22;7652;53.584;9.998;2023-06-01T04:04:06;13.00;99.90
15103;DHT22;7652;53.584;9.998;2023-06-01T04:07:29;13.00;99.90
15103;DHT22;7652;53.584;9.998;2023-06-01T04:10:51;13.10;99.90
15103;DHT22;7652;53.584;9.998;2023-06-01T04:14:12;13.00;99.90
15103;DHT22;7652;53.584;9.998;2023-06-01T04:17:37;13.10;99.90
15103;DHT22;7652;53.584;9.998;2023-06-01T04:20:58;13.10;99.90
15103;DHT22;7652;53.584;9.998;2023-06-01T04:24:20;13.10;99.90
15103;DHT22;7652;53.584;9.998;2023-06-01T04:27:44;13.20;99.90
15103;DHT22;7652;53.584;9.998;2023-06-01T04:31:05;13.10;99.90
15103;DHT22;7652;53.584;9.998;2023-06-01T04:34:29;13.10;99.90
15103;DHT22;7652;53.584;9.998;2023-06-01T04:37:50;13.00;99.90
15103;DHT22;7652;53.584;9.998;2023-06-01T04:41:12;13.10;99.90
15103;DHT22;7652;53.584;9.998;2023-06-01T04:44:33;13.10;99.90
15103;DHT22;7652;53.584;9.998;2023-06-01T04:47:56;13.20;99.90
15103;DHT22;7652;53.584;9.998;2023-06-01T04:51:20;13.10;99.90
15103;DHT22;7652;53.584;9.998;2023-06-01T04:54:41;13.20;99.90
15103;DHT22;7652;53.584;9.998;2023-06-01T04:58:04;13.10;99.90
15103;DHT22;7652;53.584;9.998;2023-06-01T05:01:26;13.00;99.90
15103;DHT22;7652;53.584;9.998;2023-06-01T05:04:49;13.10;99.90
15103;DHT22;7652;53.584;9.998;2023-06-01T05:08:12;13.20;99.90
15103;DHT22;7652;53.584;9.998;2023-06-01T05:11:35;13.10;99.90
15103;DHT22;7652;53.584;9.998;2023-06-01T05:14:58;13.10;99.90
15103;DHT22;7652;53.584;9.998;2023-06-01T05:18:20;13.20;99.90
15103;DHT22;7652;53.584;9.998;2023-06-01T05:21:42;13.20;99.90
15103;DHT22;7652;53.584;9.998;2023-06-01T05:25:06;13.20;99.90
15103;DHT22;7652;53.584;9.998;2023-06-01T05:28:29;13.30;99.90
15103;DHT22;7652;53.584;9.998;2023-06-01T05:31:53;13.20;99.90
15103;DHT22;7652;53.584;9.998;2023-06-01T05:35:15;13.20;99.90
15103;DHT22;7652;53.584;9.998;2023-06-01T05:38:37;13.20;99.90
15103;DHT22;7652;53.584;9.998;2023-06-01T05:42:00;13.20;99.90
15103;DHT22;7652;53.584;9.998;2023-06-01T05:45:22;13.30;99.90
15103;DHT22;7652;53.584;9.998;2023-06-01T05:48:44;13.30;99.90
15103;DHT22;7652;53.584;9.998;2023-06-01T05:52:06;13.30;99.90
15103;DHT22;7652;53.584;9.998;2023-06-01T05:55:27;13.30;99.90
15103;DHT22;7652;53.584;9.998;2023-06-01T05:58:51;13.30;99.90
15103;DHT22;7652;53.584;9.998;2023-06-01T06:02:14;13.30;99.90
15103;DHT22;7652;53.584;9.998;2023-06-01T06:05:36;13.30;99.90
15103;DHT22;7652;53.584;9.998;2023-06-01T06:08:57;13.40;99.90
15103;DHT22;7652;53.584;9.998;2023-06-01T06:12:19;13.30;99.90
15103;DHT22;7652;53.584;9.998;2023-06-01T06:15:42;13.30;99.90
15103;DHT22;7652;53.584;9.998;2023-06-01T06:19:03;13.50;99.90
15103;DHT22;7652;53.584;9.998;2023-06-01T06:22:24;13.40;99.90
15103;DHT22;7652;53.584;9.998;2023-06-01T06:25:46;13.50;99.90
15103;DHT22;7652;53.584;9.998;2023-06-01T06:29:08;13.50;99.90
15103;DHT22;7652;53.584;9.998;2023-06-01T06:32:32;13.50;99.90
15103;DHT22;7652;53.584;9.998;2023-06-01T06:35:55;13.50;99.90
15103;DHT22;7652;53.584;9.998;2023-06-01T06:39:16;13.50;99.90
15103;DHT22;7652;53.584;9.998;2023-06-01T06:42:38;13.50;99.90
15103;DHT22;7652;53.584;9.998;2023-06-01T06:45:59;13.60;99.90
15103;DHT22;7652;53.584;9.998;2023-06-01T06:49:22;13.70;99.90
15103;DHT22;7652;53.584;9.998;2023-06-01T06:52:44;13.70;99.90
15103;DHT22;7652;53.584;9.998;2023-06-01T06:56:05;13.70;99.90
15103;DHT22;7652;53.584;9.998;2023-06-01T06:59:26;13.80;99.90
15103;DHT22;7652;53.584;9.998;2023-06-01T07:02:48;13.90;99.90
15103;DHT22;7652;53.584;9.998;2023-06-01T07:06:11;13.80;99.90
15103;DHT22;7652;53.584;9.998;2023-06-01T07:09:32;13.80;99.90
15103;DHT22;7652;53.584;9.998;2023-06-01T07:12:54;14.00;99.90
15103;DHT22;7652;53.584;9.998;2023-06-01T07:16:16;14.00;99.90
15103;DHT22;7652;53.584;9.998;2023-06-01T07:19:38;14.00;99.90
15103;DHT22;7652;53.584;9.998;2023-06-01T07:23:00;14.10;99.90
15103;DHT22;7652;53.584;9.998;2023-06-01T07:26:22;14.10;99.90
15103;DHT22;7652;53.584;9.998;2023-06-01T07:29:45;14.20;99.90
15103;DHT22;7652;53.584;9.998;2023-06-01T07:33:07;14.20;99.90
15103;DHT22;7652;53.584;9.998;2023-06-01T07:36:29;14.20;99.90
15103;DHT22;7652;53.584;9.998;2023-06-01T07:39:55;14.20;99.90
15103;DHT22;7652;53.584;9.998;2023-06-01T07:43:17;14.20;99.90
15103;DHT22;7652;53.584;9.998;2023-06-01T07:46:38;14.40;99.90
15103;DHT22;7652;53.584;9.998;2023-06-01T07:50:00;14.20;99.90
15103;DHT22;7652;53.584;9.998;2023-06-01T07:53:22;14.40;99.90
15103;DHT22;7652;53.584;9.998;2023-06-01T07:56:47;14.30;99.90
15103;DHT22;7652;53.584;9.998;2023-06-01T08:00:10;14.30;99.90
15103;DHT22;7652;53.584;9.998;2023-06-01T08:03:32;14.40;99.90
15103;DHT22;7652;53.584;9.998;2023-06-01T08:06:54;14.50;99.90
15103;DHT22;7652;53.584;9.998;2023-06-01T08:10:18;14.50;99.90
15103;DHT22;7652;53.584;9.998;2023-06-01T08:13:41;14.60;99.90
15103;DHT22;7652;53.584;9.998;2023-06-01T08:17:06;14.80;99.90
15103;DHT22;7652;53.584;9.998;2023-06-01T08:20:28;14.80;99.90
15103;DHT22;7652;53.584;9.998;2023-06-01T08:23:50;14.80;99.90
15103;DHT22;7652;53.584;9.998;2023-06-01T08:27:16;14.80;99.90
15103;DHT22;7652;53.584;9.998;2023-06-01T08:30:39;14.80;99.90
15103;DHT22;7652;53.584;9.998;2023-06-01T08:34:01;14.80;99.90
15103;DHT22;7652;53.584;9.998;2023-06-01T08:37:23;14.90;99.90
15103;DHT22;7652;53.584;9.998;2023-06-01T08:40:45;14.90;99.90
15103;DHT22;7652;53.584;9.998;2023-06-01T08:44:08;14.90;99.90
15103;DHT22;7652;53.584;9.998;2023-06-01T08:47:32;15.00;99.90
15103;DHT22;7652;53.584;9.998;2023-06-01T08:50:54;15.10;99.90
15103;DHT22;7652;53.584;9.998;2023-06-01T08:54:17;15.00;99.90
15103;DHT22;7652;53.584;9.998;2023-06-01T08:57:40;15.00;99.90
15103;DHT22;7652;53.584;9.998;2023-06-01T09:01:02;15.00;99.90
15103;DHT22;7652;53.584;9.998;2023-06-01T09:04:25;15.10;99.90
15103;DHT22;7652;53.584;9.998;2023-06-01T09:07:48;15.00;99.90
15103;DHT22;7652;53.584;9.998;2023-06-01T09:11:10;15.10;99.90
15103;DHT22;7652;53.584;9.998;2023-06-01T09:14:31;15.20;99.90
15103;DHT22;7652;53.584;9.998;2023-06-01T09:18:04;15.30;99.90
15103;DHT22;7652;53.584;9.998;2023-06-01T09:21:27;15.20;99.90
15103;DHT22;7652;53.584;9.998;2023-06-01T09:24:56;15.20;99.90
15103;DHT22;7652;53.584;9.998;2023-06-01T09:28:18;15.20;99.90
15103;DHT22;7652;53.584;9.998;2023-06-01T09:31:41;15.30;99.90
15103;DHT22;7652;53.584;9.998;2023-06-01T09:35:05;15.30;99.90
15103;DHT22;7652;53.584;9.998;2023-06-01T09:38:29;15.40;99.90
15103;DHT22;7652;53.584;9.998;2023-06-01T09:41:53;15.40;99.90
15103;DHT22;7652;53.584;9.998;2023-06-01T09:45:17;15.30;99.90
15103;DHT22;7652;53.584;9.998;2023-06-01T09:48:39;15.40;99.90
15103;DHT22;7652;53.584;9.998;2023-06-01T09:52:13;15.60;99.90
15103;DHT22;7652;53.584;9.998;2023-06-01T09:55:56;15.60;99.90
15103;DHT22;7652;53.584;9.998;2023-06-01T09:59:19;15.60;99.90
15103;DHT22;7652;53.584;9.998;2023-06-01T10:02:42;15.70;99.90
15103;DHT22;7652;53.584;9.998;2023-06-01T10:06:04;15.70;99.90
15103;DHT22;7652;53.584;9.998;2023-06-01T10:09:26;15.80;99.90
15103;DHT22;7652;53.584;9.998;2023-06-01T10:12:49;15.90;99.90
15103;DHT22;7652;53.584;9.998;2023-06-01T10:16:11;16.00;99.90
15103;DHT22;7652;53.584;9.998;2023-06-01T10:19:36;16.00;99.90
15103;DHT22;7652;53.584;9.998;2023-06-01T10:22:59;16.10;99.90
15103;DHT22;7652;53.584;9.998;2023-06-01T10:26:21;16.20;99.90
15103;DHT22;7652;53.584;9.998;2023-06-01T10:29:45;16.20;99.90
15103;DHT22;7652;53.584;9.998;2023-06-01T10:33:07;16.10;99.90
15103;DHT22;7652;53.584;9.998;2023-06-01T10:40:30;16.20;99.90
15103;DHT22;7652;53.584;9.998;2023-06-01T10:43:52;16.20;99.90
15103;DHT22;7652;53.584;9.998;2023-06-01T10:47:45;16.30;99.90
15103;DHT22;7652;53.584;9.998;2023-06-01T10:51:18;16.30;99.90
15103;DHT22;7652;53.584;9.998;2023-06-01T10:54:40;16.30;99.90
15103;DHT22;7652;53.584;9.998;2023-06-01T10:58:19;16.20;99.90
15103;DHT22;7652;53.584;9.998;2023-06-01T11:01:43;16.20;99.90
15103;DHT22;7652;53.584;9.998;2023-06-01T11:05:34;16.20;99.90
15103;DHT22;7652;53.584;9.998;2023-06-01T11:08:58;16.30;99.90
15103;DHT22;7652;53.584;9.998;2023-06-01T11:12:21;16.30;99.90
15103;DHT22;7652;53.584;9.998;2023-06-01T11:16:29;16.30;99.90
15103;DHT22;7652;53.584;9.998;2023-06-01T11:19:57;16.10;99.90
15103;DHT22;7652;53.584;9.998;2023-06-01T11:23:19;16.10;99.90
15103;DHT22;7652;53.584;9.998;2023-06-01T11:26:42;16.40;99.90
15103;DHT22;7652;53.584;9.998;2023-06-01T11:30:04;16.50;99.90
15103;DHT22;7652;53.584;9.998;2023-06-01T11:33:29;16.60;99.90
15103;DHT22;7652;53.584;9.998;2023-06-01T11:36:54;16.70;99.90
15103;DHT22;7652;53.584;9.998;2023-06-01T11:40:18;16.50;99.90
15103;DHT22;7652;53.584;9.998;2023-06-01T11:43:41;16.30;99.90
15103;DHT22;7652;53.584;9.998;2023-06-01T11:47:03;16.30;99.90
15103;DHT22;7652;53.584;9.998;2023-06-01T11:50:28;16.50;99.90
15103;DHT22;7652;53.584;9.998;2023-06-01T11:53:52;16.40;99.90
15103;DHT22;7652;53.584;9.998;2023-06-01T11:57:15;16.50;99.90
15103;DHT22;7652;53.584;9.998;2023-06-01T12:00:38;16.50;99.90
15103;DHT22;7652;53.584;9.998;2023-06-01T12:04:01;16.50;99.90
15103;DHT22;7652;53.584;9.998;2023-06-01T12:07:25;16.50;99.90
15103;DHT22;7652;53.584;9.998;2023-06-01T12:10:48;16.50;99.90
15103;DHT22;7652;53.584;9.998;2023-06-01T12:14:11;16.40;99.90
15103;DHT22;7652;53.584;9.998;2023-06-01T12:17:47;16.50;99.90
15103;DHT22;7652;53.584;9.998;2023-06-01T12:21:18;16.60;99.90
15103;DHT22;7652;53.584;9.998;2023-06-01T12:24:40;16.80;99.90
15103;DHT22;7652;53.584;9.998;2023-06-01T12:28:05;17.00;99.90
15103;DHT22;7652;53.584;9.998;2023-06-01T12:31:26;17.20;99.90
15103;DHT22;7652;53.584;9.998;2023-06-01T12:35:03;17.70;99.90
15103;DHT22;7652;53.584;9.998;2023-06-01T12:38:26;18.40;99.90
15103;DHT22;7652;53.584;9.998;2023-06-01T12:41:49;18.80;99.90
15103;DHT22;7652;53.584;9.998;2023-06-01T12:45:11;18.60;99.90
15103;DHT22;7652;53.584;9.998;2023-06-01T12:48:34;18.60;99.90
15103;DHT22;7652;53.584;9.998;2023-06-01T12:51:56;18.10;99.90
15103;DHT22;7652;53.584;9.998;2023-06-01T12:55:18;18.00;99.90
15103;DHT22;7652;53.584;9.998;2023-06-01T12:58:41;18.20;99.90
15103;DHT22;7652;53.584;9.998;2023-06-01T13:02:04;18.60;99.90
15103;DHT22;7652;53.584;9.998;2023-06-01T13:05:26;18.60;99.90
15103;DHT22;7652;53.584;9.998;2023-06-01T13:08:47;18.50;99.90
15103;DHT22;7652;53.584;9.998;2023-06-01T13:12:09;18.50;99.90
15103;DHT22;7652;53.584;9.998;2023-06-01T13:15:32;18.70;99.90
15103;DHT22;7652;53.584;9.998;2023-06-01T13:18:54;18.60;99.90
15103;DHT22;7652;53.584;9.998;2023-06-01T13:22:15;18.40;99.90
15103;DHT22;7652;53.584;9.998;2023-06-01T13:25:37;18.20;99.90
15103;DHT22;7652;53.584;9.998;2023-06-01T13:28:58;18.20;99.90
15103;DHT22;7652;53.584;9.998;2023-06-01T13:32:22;18.40;99.90
15103;DHT22;7652;53.584;9.998;2023-06-01T13:35:44;18.40;99.90
15103;DHT22;7652;53.584;9.998;2023-06-01T13:39:05;18.20;99.90
15103;DHT22;7652;53.584;9.998;2023-06-01T13:42:26;17.80;99.90
15103;DHT22;7652;53.584;9.998;2023-06-01T13:45:48;18.00;99.90
15103;DHT22;7652;53.584;9.998;2023-06-01T13:49:11;18.00;99.90
15103;DHT22;7652;53.584;9.998;2023-06-01T13:52:32;18.10;99.90
15103;DHT22;7652;53.584;9.998;2023-06-01T13:55:54;18.20;99.90
15103;DHT22;7652;53.584;9.998;2023-06-01T13:59:15;18.20;99.90
15103;DHT22;7652;53.584;9.998;2023-06-01T14:02:38;18.00;99.90
15103;DHT22;7652;53.584;9.998;2023-06-01T14:06:01;17.90;99.90
15103;DHT22;7652;53.584;9.998;2023-06-01T14:09:22;18.10;99.90
15103;DHT22;7652;53.584;9.998;2023-06-01T14:12:44;18.20;99.90
15103;DHT22;7652;53.584;9.998;2023-06-01T14:16:06;18.30;99.90
15103;DHT22;7652;53.584;9.998;2023-06-01T14:19:27;18.40;99.90
15103;DHT22;7652;53.584;9.998;2023-06-01T14:22:50;18.60;99.90
15103;DHT22;7652;53.584;9.998;2023-06-01T14:26:11;18.40;99.90
15103;DHT22;7652;53.584;9.998;2023-06-01T14:29:33;18.20;99.90
15103;DHT22;7652;53.584;9.998;2023-06-01T14:32:54;17.90;99.90
15103;DHT22;7652;53.584;9.998;2023-06-01T14:36:16;17.90;99.90
15103;DHT22;7652;53.584;9.998;2023-06-01T14:39:39;17.80;99.90
15103;DHT22;7652;53.584;9.998;2023-06-01T14:43:01;17.70;99.90
15103;DHT22;7652;53.584;9.998;2023-06-01T14:46:22;17.70;99.90
15103;DHT22;7652;53.584;9.998;2023-06-01T14:49:44;17.50;99.90
15103;DHT22;7652;53.584;9.998;2023-06-01T14:53:06;17.40;99.90
15103;DHT22;7652;53.584;9.998;2023-06-01T14:56:29;17.30;99.90
15103;DHT22;7652;53.584;9.998;2023-06-01T14:59:51;17.20;99.90
15103;DHT22;7652;53.584;9.998;2023-06-01T15:03:23;17.20;99.90
15103;DHT22;7652;53.584;9.998;2023-06-01T15:06:45;17.10;99.90
15103;DHT22;7652;53.584;9.998;2023-06-01T15:10:08;17.20;99.90
15103;DHT22;7652;53.584;9.998;2023-06-01T15:13:31;17.20;99.90
15103;DHT22;7652;53.584;9.998;2023-06-01T15:16:52;17.30;99.90
15103;DHT22;7652;53.584;9.998;2023-06-01T15:20:14;17.40;99.90
15103;DHT22;7652;53.584;9.998;2023-06-01T15:23:36;17.30;99.90
15103;DHT22;7652;53.584;9.998;2023-06-01T15:26:57;17.20;99.90
15103;DHT22;7652;53.584;9.998;2023-06-01T15:30:20;17.10;99.90
15103;DHT22;7652;53.584;9.998;2023-06-01T15:33:42;17.10;99.90
15103;DHT22;7652;53.584;9.998;2023-06-01T15:37:03;16.90;99.90
15103;DHT22;7652;53.584;9.998;2023-06-01T15:40:25;16.90;99.90
15103;DHT22;7652;53.584;9.998;2023-06-01T15:43:46;17.00;99.90
15103;DHT22;7652;53.584;9.998;2023-06-01T15:47:10;16.90;99.90
15103;DHT22;7652;53.584;9.998;2023-06-01T15:50:32;16.90;99.90
15103;DHT22;7652;53.584;9.998;2023-06-01T15:53:53;16.80;99.90
15103;DHT22;7652;53.584;9.998;2023-06-01T15:57:15;16.80;99.90
15103;DHT22;7652;53.584;9.998;2023-06-01T16:00:36;16.70;99.90
15103;DHT22;7652;53.584;9.998;2023-06-01T16:03:59;16.50;99.90
15103;DHT22;7652;53.584;9.998;2023-06-01T16:07:21;16.50;99.90
15103;DHT22;7652;53.584;9.998;2023-06-01T16:10:43;16.50;99.90
15103;DHT22;7652;53.584;9.998;2023-06-01T16:14:05;16.40;99.90
15103;DHT22;7652;53.584;9.998;2023-06-01T16:17:26;16.40;99.90
15103;DHT22;7652;53.584;9.998;2023-06-01T16:20:49;16.40;99.90
15103;DHT22;7652;53.584;9.998;2023-06-01T16:24:11;16.20;99.90
15103;DHT22;7652;53.584;9.998;2023-06-01T16:27:32;16.30;99.90
15103;DHT22;7652;53.584;9.998;2023-06-01T16:30:54;16.30;99.90
15103;DHT22;7652;53.584;9.998;2023-06-01T16:34:15;16.30;99.90
15103;DHT22;7652;53.584;9.998;2023-06-01T16:37:38;16.30;99.90
15103;DHT22;7652;53.584;9.998;2023-06-01T16:41:00;16.10;99.90
15103;DHT22;7652;53.584;9.998;2023-06-01T16:44:22;16.00;99.90
15103;DHT22;7652;53.584;9.998;2023-06-01T16:47:43;16.00;99.90
15103;DHT22;7652;53.584;9.998;2023-06-01T16:51:05;16.00;99.90
15103;DHT22;7652;53.584;9.998;2023-06-01T16:54:28;16.00;99.90
15103;DHT22;7652;53.584;9.998;2023-06-01T16:57:50;16.00;99.90
15103;DHT22;7652;53.584;9.998;2023-06-01T17:01:11;16.00;99.90
15103;DHT22;7652;53.584;9.998;2023-06-01T17:04:33;15.90;99.90
15103;DHT22;7652;53.584;9.998;2023-06-01T17:07:55;15.90;99.90
15103;DHT22;7652;53.584;9.998;2023-06-01T17:11:17;15.90;99.90
15103;DHT22;7652;53.584;9.998;2023-06-01T17:14:39;15.80;99.90
15103;DHT22;7652;53.584;9.998;2023-06-01T17:18:00;15.70;99.90
15103;DHT22;7652;53.584;9.998;2023-06-01T17:21:22;15.70;99.90
15103;DHT22;7652;53.584;9.998;2023-06-01T17:24:44;15.70;99.90
15103;DHT22;7652;53.584;9.998;2023-06-01T17:28:09;15.70;99.90
15103;DHT22;7652;53.584;9.998;2023-06-01T17:31:30;15.60;99.90
15103;DHT22;7652;53.584;9.998;2023-06-01T17:34:52;15.50;99.90
15103;DHT22;7652;53.584;9.998;2023-06-01T17:38:14;15.30;99.90
15103;DHT22;7652;53.584;9.998;2023-06-01T17:41:35;15.30;99.90
15103;DHT22;7652;53.584;9.998;2023-06-01T17:45:05;15.10;99.90
15103;DHT22;7652;53.584;9.998;2023-06-01T17:48:29;15.10;99.90
15103;DHT22;7652;53.584;9.998;2023-06-01T17:51:50;15.00;99.90
15103;DHT22;7652;53.584;9.998;2023-06-01T17:55:12;14.90;99.90
15103;DHT22;7652;53.584;9.998;2023-06-01T17:58:33;14.80;99.90
15103;DHT22;7652;53.584;9.998;2023-06-01T18:01:56;14.80;99.90
15103;DHT22;7652;53.584;9.998;2023-06-01T18:05:17;14.80;99.90
15103;DHT22;7652;53.584;9.998;2023-06-01T18:08:39;14.70;99.90
15103;DHT22;7652;53.584;9.998;2023-06-01T18:12:00;14.80;99.90
15103;DHT22;7652;53.584;9.998;2023-06-01T18:15:21;14.80;99.90
15103;DHT22;7652;53.584;9.998;2023-06-01T18:18:45;14.70;99.90
15103;DHT22;7652;53.584;9.998;2023-06-01T18:22:06;14.60;99.90
15103;DHT22;7652;53.584;9.998;2023-06-01T18:25:29;14.70;99.90
15103;DHT22;7652;53.584;9.998;2023-06-01T18:28:50;14.60;99.90
15103;DHT22;7652;53.584;9.998;2023-06-01T18:32:11;14.40;99.90
15103;DHT22;7652;53.584;9.998;2023-06-01T18:35:34;14.30;99.90
15103;DHT22;7652;53.584;9.998;2023-06-01T18:38:56;14.30;99.90
15103;DHT22;7652;53.584;9.998;2023-06-01T18:42:17;14.30;99.90
15103;DHT22;7652;53.584;9.998;2023-06-01T18:45:38;14.40;99.90
15103;DHT22;7652;53.584;9.998;2023-06-01T18:49:01;14.30;99.90
15103;DHT22;7652;53.584;9.998;2023-06-01T18:52:24;14.20;99.90
15103;DHT22;7652;53.584;9.998;2023-06-01T18:55:46;14.20;99.90
15103;DHT22;7652;53.584;9.998;2023-06-01T18:59:08;14.10;99.90
15103;DHT22;7652;53.584;9.998;2023-06-01T19:02:30;14.10;99.90
15103;DHT22;7652;53.584;9.998;2023-06-01T19:05:53;14.10;99.90
15103;DHT22;7652;53.584;9.998;2023-06-01T19:09:18;14.10;99.90
15103;DHT22;7652;53.584;9.998;2023-06-01T19:12:39;13.90;99.90
15103;DHT22;7652;53.584;9.998;2023-06-01T19:16:04;13.90;99.90
15103;DHT22;7652;53.584;9.998;2023-06-01T19:19:27;14.00;99.90
15103;DHT22;7652;53.584;9.998;2023-06-01T19:22:48;13.80;99.90
15103;DHT22;7652;53.584;9.998;2023-06-01T19:26:11;13.70;99.90
15103;DHT22;7652;53.584;9.998;2023-06-01T19:29:38;13.80;99.90
15103;DHT22;7652;53.584;9.998;2023-06-01T19:33:01;13.70;99.90
15103;DHT22;7652;53.584;9.998;2023-06-01T19:36:51;13.80;99.90
15103;DHT22;7652;53.584;9.998;2023-06-01T19:40:17;13.70;99.90
15103;DHT22;7652;53.584;9.998;2023-06-01T19:43:43;13.70;99.90
15103;DHT22;7652;53.584;9.998;2023-06-01T19:47:07;13.60;99.90
15103;DHT22;7652;53.584;9.998;2023-06-01T19:50:41;13.70;99.90
15103;DHT22;7652;53.584;9.998;2023-06-01T19:54:04;13.50;99.90
15103;DHT22;7652;53.584;9.998;2023-06-01T19:57:25;13.60;99.90
15103;DHT22;7652;53.584;9.998;2023-06-01T20:00:48;13.50;99.90
15103;DHT22;7652;53.584;9.998;2023-06-01T20:04:10;13.40;99.90
15103;DHT22;7652;53.584;9.998;2023-06-01T20:07:32;13.30;99.90
15103;DHT22;7652;53.584;9.998;2023-06-01T20:10:53;13.20;99.90
15103;DHT22;7652;53.584;9.998;2023-06-01T20:14:22;13.10;99.90
15103;DHT22;7652;53.584;9.998;2023-06-01T20:17:46;13.10;99.90
15103;DHT22;7652;53.584;9.998;2023-06-01T20:21:08;13.00;99.90
15103;DHT22;7652;53.584;9.998;2023-06-01T20:24:30;13.00;99.90
15103;DHT22;7652;53.584;9.998;2023-06-01T20:27:52;12.90;99.90
15103;DHT22;7652;53.584;9.998;2023-06-01T20:31:13;12.80;99.90
15103;DHT22;7652;53.584;9.998;2023-06-01T20:34:37;12.80;99.90
15103;DHT22;7652;53.584;9.998;2023-06-01T20:37:59;12.90;99.90
15103;DHT22;7652;53.584;9.998;2023-06-01T20:41:22;12.90;99.90
15103;DHT22;7652;53.584;9.998;2023-06-01T20:44:44;12.80;99.90
15103;DHT22;7652;53.584;9.998;2023-06-01T20:48:05;12.90;99.90
15103;DHT22;7652;53.584;9.998;2023-06-01T20:51:30;12.80;99.90
15103;DHT22;7652;53.584;9.998;2023-06-01T20:54:52;12.80;99.90
15103;DHT22;7652;53.584;9.998;2023-06-01T20:58:13;12.80;99.90
15103;DHT22;7652;53.584;9.998;2023-06-01T21:01:36;12.70;99.90
15103;DHT22;7652;53.584;9.998;2023-06-01T21:04:58;12.70;99.90
15103;DHT22;7652;53.584;9.998;2023-06-01T21:08:21;12.70;99.90
15103;DHT22;7652;53.584;9.998;2023-06-01T21:11:43;12.70;99.90
15103;DHT22;7652;53.584;9.998;2023-06-01T21:15:07;12.80;99.90
15103;DHT22;7652;53.584;9.998;2023-06-01T21:18:29;12.70;99.90
15103;DHT22;7652;53.584;9.998;2023-06-01T21:21:51;12.60;99.90
15103;DHT22;7652;53.584;9.998;2023-06-01T21:25:14;12.50;99.90
15103;DHT22;7652;53.584;9.998;2023-06-01T21:28:35;12.40;99.90
15103;DHT22;7652;53.584;9.998;2023-06-01T21:31:58;12.50;99.90
15103;DHT22;7652;53.584;9.998;2023-06-01T21:35:19;12.40;99.90
15103;DHT22;7652;53.584;9.998;2023-06-01T21:38:40;12.30;99.90
15103;DHT22;7652;53.584;9.998;2023-06-01T21:42:04;12.40;99.90
15103;DHT22;7652;53.584;9.998;2023-06-01T21:45:26;12.30;99.90
15103;DHT22;7652;53.584;9.998;2023-06-01T21:48:47;12.30;99.90